createdAt,value
2023-03-13T00:00:05.271Z,14.73
2023-03-13T00:04:14.596Z,16.37
2023-03-13T00:08:20.516Z,12.60
2023-03-13T00:12:23.740Z,15.57
2023-03-13T00:16:23.921Z,15.07
2023-03-13T00:20:24.117Z,12.87
2023-03-13T00:24:26.737Z,13.07
2023-03-13T00:28:26.874Z,11.40
2023-03-13T00:32:27.091Z,15.70
2023-03-13T00:36:29.945Z,13.67
2023-03-13T00:40:32.506Z,13.37
2023-03-13T00:44:32.857Z,13.03
2023-03-13T00:48:34.038Z,17.70
2023-03-13T00:52:34.108Z,14.63
2023-03-13T00:56:37.557Z,14.43
2023-03-13T01:00:37.760Z,14.63
2023-03-13T01:04:37.882Z,13.10
2023-03-13T01:08:37.950Z,13.30
2023-03-13T01:12:42.217Z,14.80
2023-03-13T01:16:43.164Z,14.90
2023-03-13T01:20:43.437Z,13.10
2023-03-13T01:24:43.630Z,14.47
2023-03-13T01:28:46.930Z,11.40
2023-03-13T01:32:49.604Z,13.93
2023-03-13T01:36:52.490Z,9.37
2023-03-13T01:40:53.030Z,13.57
2023-03-13T01:44:59.821Z,11.20
2023-03-13T01:49:08.217Z,10.70
2023-03-13T01:53:29.110Z,12.10
2023-03-13T01:57:33.814Z,12.47
2023-03-13T02:01:38.764Z,10.67
2023-03-13T02:05:41.588Z,11.03
2023-03-13T02:09:45.281Z,13.93
2023-03-13T02:13:46.726Z,10.03
2023-03-13T02:17:51.854Z,12.43
2023-03-13T02:22:02.374Z,12.40
2023-03-13T02:26:06.714Z,12.27
2023-03-13T02:30:11.181Z,13.27
2023-03-13T02:34:11.517Z,13.33
2023-03-13T02:38:17.074Z,12.27
2023-03-13T02:42:25.843Z,13.97
2023-03-13T02:46:26.114Z,13.97
2023-03-13T02:50:27.786Z,11.63
2023-03-13T02:54:35.253Z,13.00
2023-03-13T02:58:49.842Z,15.00
2023-03-13T03:02:52.191Z,14.60
2023-03-13T03:06:55.011Z,9.90
2023-03-13T03:10:55.498Z,11.93
2023-03-13T03:14:59.785Z,14.17
2023-03-13T03:19:00.956Z,15.40
2023-03-13T03:23:01.256Z,12.60
2023-03-13T03:27:01.384Z,17.30
2023-03-13T03:31:15.591Z,9.37
2023-03-13T03:35:15.964Z,13.13
2023-03-13T03:39:16.969Z,11.77
2023-03-13T03:43:18.841Z,11.60
2023-03-13T03:47:22.033Z,8.70
2023-03-13T03:51:22.598Z,12.27
2023-03-13T03:55:23.047Z,11.50
2023-03-13T03:59:23.402Z,14.10
2023-03-13T04:03:40.846Z,10.47
2023-03-13T04:07:41.504Z,9.20
2023-03-13T04:11:41.925Z,9.23
2023-03-13T04:15:44.235Z,8.63
2023-03-13T04:19:47.465Z,7.93
2023-03-13T04:23:47.815Z,11.93
2023-03-13T04:27:49.048Z,8.40
2023-03-13T04:31:50.101Z,8.77
2023-03-13T04:36:12.766Z,7.60
2023-03-13T04:40:32.022Z,9.93
2023-03-13T04:44:41.295Z,6.13
2023-03-13T04:48:53.456Z,8.93
2023-03-13T04:53:07.925Z,7.87
2023-03-13T04:57:27.068Z,10.73
2023-03-13T05:01:34.142Z,7.97
2023-03-13T05:05:37.744Z,12.40
2023-03-13T05:09:56.122Z,11.80
2023-03-13T05:14:16.077Z,12.53
2023-03-13T05:18:36.145Z,7.80
2023-03-13T05:22:52.530Z,6.27
2023-03-13T05:27:13.645Z,6.90
2023-03-13T05:31:27.464Z,9.03
2023-03-13T05:35:46.680Z,8.63
2023-03-13T05:40:00.649Z,7.97
2023-03-13T05:44:22.526Z,5.87
2023-03-13T05:48:57.970Z,6.37
2023-03-13T05:53:17.614Z,8.73
2023-03-13T05:57:48.610Z,8.43
2023-03-13T06:02:17.250Z,12.77
2023-03-13T06:06:20.118Z,9.30
2023-03-13T06:10:24.624Z,8.60
2023-03-13T06:14:25.542Z,11.30
2023-03-13T06:18:40.931Z,9.80
2023-03-13T06:22:41.213Z,8.77
2023-03-13T06:26:41.374Z,11.50
2023-03-13T06:30:41.900Z,12.30
2023-03-13T06:34:44.734Z,9.33
2023-03-13T06:38:45.035Z,9.30
2023-03-13T06:42:45.232Z,6.93
2023-03-13T06:46:45.801Z,9.93
2023-03-13T06:50:49.350Z,9.00
2023-03-13T06:54:49.420Z,7.30
2023-03-13T06:58:50.785Z,7.77
2023-03-13T07:02:50.904Z,5.80
2023-03-13T07:06:57.138Z,8.57
2023-03-13T07:11:01.414Z,11.00
2023-03-13T07:15:01.614Z,9.57
2023-03-13T07:19:01.748Z,8.10
2023-03-13T07:23:04.496Z,8.77
2023-03-13T07:27:07.851Z,10.33
2023-03-13T07:31:12.094Z,6.47
2023-03-13T07:35:12.561Z,7.73
2023-03-13T07:39:15.310Z,7.13
2023-03-13T07:43:15.389Z,7.73
2023-03-13T07:47:15.717Z,8.77
2023-03-13T07:51:23.214Z,6.97
2023-03-13T07:55:28.930Z,6.80
2023-03-13T07:59:31.030Z,5.67
2023-03-13T08:03:32.288Z,9.40
2023-03-13T08:07:32.625Z,12.30
2023-03-13T08:11:35.502Z,8.37
2023-03-13T08:15:35.615Z,5.93
2023-03-13T08:19:35.888Z,10.47
2023-03-13T08:23:37.064Z,11.63
2023-03-13T08:27:40.648Z,7.20
2023-03-13T08:31:45.480Z,6.43
2023-03-13T08:35:45.758Z,5.60
2023-03-13T08:39:46.256Z,4.57
2023-03-13T08:43:50.228Z,7.57
2023-03-13T08:47:54.796Z,4.43
2023-03-13T08:51:55.758Z,5.97
2023-03-13T08:55:56.814Z,4.53
2023-03-13T08:59:59.451Z,3.17
2023-03-13T09:04:03.485Z,5.70
2023-03-13T09:08:04.234Z,5.03
2023-03-13T09:12:04.438Z,4.10
2023-03-13T09:16:10.971Z,7.07
2023-03-13T09:20:14.132Z,5.07
2023-03-13T09:24:14.287Z,6.93
2023-03-13T09:28:14.544Z,3.10
2023-03-13T09:32:17.392Z,3.47
2023-03-13T09:36:21.449Z,4.87
2023-03-13T09:40:26.956Z,5.37
2023-03-13T09:44:31.709Z,5.47
2023-03-13T09:48:41.722Z,6.17
2023-03-13T09:52:44.005Z,4.50
2023-03-13T09:56:51.120Z,5.37
2023-03-13T10:00:56.611Z,3.67
2023-03-13T10:05:08.820Z,3.83
2023-03-13T10:09:23.278Z,4.60
2023-03-13T10:13:36.755Z,3.67
2023-03-13T10:17:40.620Z,4.40
2023-03-13T10:21:47.849Z,2.47
2023-03-13T10:25:47.955Z,4.30
2023-03-13T10:29:48.210Z,3.05
2023-03-13T10:33:48.393Z,1.73
2023-03-13T10:37:51.203Z,1.67
2023-03-13T10:41:53.523Z,3.77
2023-03-13T10:45:53.566Z,2.55
2023-03-13T10:49:59.553Z,1.45
2023-03-13T10:54:03.056Z,3.30
2023-03-13T10:58:15.188Z,3.05
2023-03-13T11:02:30.718Z,1.52
2023-03-13T11:06:37.676Z,1.55
2023-03-13T11:10:55.001Z,2.33
2023-03-13T11:15:02.147Z,2.72
2023-03-13T11:19:26.573Z,1.48
2023-03-13T11:23:36.375Z,3.75
2023-03-13T11:27:48.459Z,1.20
2023-03-13T11:31:54.289Z,2.03
2023-03-13T11:36:04.241Z,2.60
2023-03-13T11:40:21.450Z,0.90
2023-03-13T11:44:38.324Z,0.82
2023-03-13T11:49:12.012Z,5.20
2023-03-13T11:53:44.429Z,2.30
2023-03-13T11:58:01.230Z,0.95
2023-03-13T12:02:12.102Z,1.60
2023-03-13T12:06:30.108Z,6.97
2023-03-13T12:10:40.156Z,2.08
2023-03-13T12:14:45.911Z,2.17
2023-03-13T12:18:52.005Z,2.17
2023-03-13T12:23:01.116Z,2.50
2023-03-13T12:27:12.048Z,3.05
2023-03-13T12:31:25.229Z,1.10
2023-03-13T12:35:33.456Z,2.92
2023-03-13T12:39:40.498Z,15.82
2023-03-13T12:43:47.911Z,19.10
2023-03-13T12:48:26.258Z,7.82
2023-03-13T12:53:14.927Z,2.88
2023-03-13T12:58:07.441Z,3.50
2023-03-13T13:02:24.606Z,1.60
2023-03-13T13:06:31.809Z,3.78
2023-03-13T13:10:46.824Z,2.28
2023-03-13T13:15:25.478Z,4.10
2023-03-13T13:19:47.451Z,1.27
2023-03-13T13:23:50.685Z,3.28
2023-03-13T13:27:53.462Z,3.72
2023-03-13T13:32:02.836Z,5.53
2023-03-13T13:36:33.383Z,1.92
2023-03-13T13:40:35.227Z,3.67
2023-03-13T13:44:38.411Z,5.07
2023-03-13T13:48:40.105Z,4.30
2023-03-13T13:52:42.208Z,2.03
2023-03-13T13:56:53.465Z,4.63
2023-03-13T14:01:09.548Z,1.88
2023-03-13T14:05:24.646Z,2.38
2023-03-13T14:09:56.383Z,3.50
2023-03-13T14:14:18.724Z,5.05
2023-03-13T14:18:27.029Z,5.13
2023-03-13T14:22:27.106Z,4.95
2023-03-13T14:26:30.670Z,1.80
2023-03-13T14:30:30.977Z,1.58
2023-03-13T14:34:33.821Z,2.17
2023-03-13T14:38:34.096Z,3.88
2023-03-13T14:42:45.920Z,2.28
2023-03-13T14:46:47.261Z,3.25
2023-03-13T14:50:50.946Z,3.78
2023-03-13T14:54:58.939Z,4.80
2023-03-13T14:59:16.727Z,5.25
2023-03-13T15:03:41.794Z,4.03
2023-03-13T15:07:59.732Z,4.53
2023-03-13T15:12:03.760Z,2.83
2023-03-13T15:16:06.953Z,2.38
2023-03-13T15:20:09.900Z,8.95
2023-03-13T15:24:18.796Z,5.07
2023-03-13T15:28:21.567Z,4.95
2023-03-13T15:32:29.133Z,2.80
2023-03-13T15:36:31.981Z,4.50
2023-03-13T15:40:34.854Z,4.00
2023-03-13T15:44:35.012Z,2.80
2023-03-13T15:48:36.415Z,4.43
2023-03-13T15:52:38.509Z,3.10
2023-03-13T15:56:53.235Z,3.53
2023-03-13T16:00:58.798Z,4.13
2023-03-13T16:05:08.313Z,4.93
2023-03-13T16:09:11.640Z,3.67
2023-03-13T16:13:20.781Z,4.20
2023-03-13T16:17:25.971Z,4.63
2023-03-13T16:21:29.594Z,2.63
2023-03-13T16:25:29.724Z,5.93
2023-03-13T16:29:32.453Z,9.70
2023-03-13T16:33:32.511Z,3.33
2023-03-13T16:37:35.082Z,6.07
2023-03-13T16:41:35.622Z,5.30
2023-03-13T16:45:38.421Z,6.15
2023-03-13T16:49:38.942Z,6.18
2023-03-13T16:53:39.460Z,3.60
2023-03-13T16:57:40.790Z,6.13
2023-03-13T17:01:44.903Z,4.50
2023-03-13T17:05:47.879Z,4.90
2023-03-13T17:09:49.957Z,5.07
2023-03-13T17:13:54.587Z,4.03
2023-03-13T17:23:27.649Z,5.68
2023-03-13T17:27:29.621Z,7.97
2023-03-13T17:31:37.693Z,5.18
2023-03-13T17:35:44.536Z,8.60
2023-03-13T17:39:53.880Z,9.10
2023-03-13T17:43:56.278Z,6.90
2023-03-13T17:48:01.541Z,5.97
2023-03-13T17:52:05.263Z,13.77
2023-03-13T17:56:22.257Z,9.82
2023-03-13T18:00:29.706Z,11.90
2023-03-13T18:04:31.387Z,16.03
2023-03-13T18:08:33.662Z,11.50
2023-03-13T18:12:37.048Z,11.00
2023-03-13T18:16:43.634Z,5.57
2023-03-13T18:20:44.741Z,7.60
2023-03-13T18:24:46.069Z,6.30
2023-03-13T18:28:49.370Z,8.93
2023-03-13T18:32:50.414Z,10.53
2023-03-13T18:36:51.502Z,8.73
2023-03-13T18:40:52.489Z,7.50
2023-03-13T18:44:56.355Z,7.63
2023-03-13T18:48:57.854Z,7.40
2023-03-13T18:53:00.585Z,7.07
2023-03-13T18:57:07.820Z,7.23
2023-03-13T19:01:18.525Z,7.90
2023-03-13T19:05:24.972Z,9.70
2023-03-13T19:09:46.447Z,9.70
2023-03-13T19:13:53.019Z,7.87
2023-03-13T19:17:58.261Z,7.00
2023-03-13T19:21:58.968Z,6.93
2023-03-13T19:25:59.585Z,10.50
2023-03-13T19:30:00.014Z,7.93
2023-03-13T19:34:02.880Z,7.30
2023-03-13T19:38:03.515Z,6.67
2023-03-13T19:42:06.165Z,7.90
2023-03-13T19:46:23.510Z,7.33
2023-03-13T19:50:31.451Z,8.03
2023-03-13T19:54:32.046Z,18.97
2023-03-13T19:58:32.310Z,19.40
2023-03-13T20:02:32.692Z,16.53
2023-03-13T20:06:37.719Z,5.07
2023-03-13T20:10:38.034Z,8.97
2023-03-13T20:14:39.060Z,6.17
2023-03-13T20:18:39.545Z,6.47
2023-03-13T20:22:42.436Z,5.30
2023-03-13T20:26:42.957Z,6.37
2023-03-13T20:30:44.899Z,7.43
2023-03-13T20:34:46.211Z,7.93
2023-03-13T20:38:49.593Z,4.83
2023-03-13T20:42:50.240Z,9.48
2023-03-13T20:46:50.632Z,20.10
2023-03-13T20:50:56.024Z,9.73
2023-03-13T20:54:59.750Z,6.53
2023-03-13T20:59:00.178Z,7.17
2023-03-13T21:03:00.547Z,10.50
2023-03-13T21:07:04.699Z,9.93
2023-03-13T21:11:14.711Z,8.03
2023-03-13T21:15:16.522Z,4.93
2023-03-13T21:19:17.285Z,6.07
2023-03-13T21:23:17.439Z,5.63
2023-03-13T21:27:20.693Z,7.83
2023-03-13T21:31:22.617Z,4.77
2023-03-13T21:35:23.555Z,5.93
2023-03-13T21:39:23.861Z,8.03
2023-03-13T21:43:28.296Z,5.53
2023-03-13T21:47:29.079Z,6.80
2023-03-13T21:51:29.972Z,5.93
2023-03-13T21:55:31.816Z,5.90
2023-03-13T21:59:35.039Z,7.07
2023-03-13T22:03:35.410Z,36.37
2023-03-13T22:07:36.027Z,57.43
2023-03-13T22:11:37.920Z,13.00
2023-03-13T22:15:43.596Z,15.33
2023-03-13T22:19:43.966Z,11.93
2023-03-13T22:23:44.167Z,25.57
2023-03-13T22:27:45.000Z,6.33
2023-03-13T22:31:47.805Z,2.23
2023-03-13T22:35:54.969Z,1.67
2023-03-13T22:39:56.347Z,2.27
2023-03-13T22:43:56.635Z,1.57
2023-03-13T22:47:59.793Z,1.50
2023-03-13T22:52:02.693Z,4.83
2023-03-13T22:56:03.601Z,1.37
2023-03-13T23:00:05.320Z,1.13
2023-03-13T23:04:09.223Z,3.97
2023-03-13T23:08:09.648Z,2.83
2023-03-13T23:12:10.399Z,2.47
2023-03-13T23:16:16.695Z,4.43
2023-03-13T23:20:22.435Z,3.37
2023-03-13T23:24:26.109Z,1.20
2023-03-13T23:28:28.044Z,2.97
2023-03-13T23:32:30.685Z,2.30
2023-03-13T23:36:34.601Z,1.27
2023-03-13T23:40:34.927Z,2.73
2023-03-13T23:44:35.578Z,1.80
2023-03-13T23:48:35.982Z,2.23
2023-03-13T23:52:39.913Z,2.37
2023-03-13T23:56:40.427Z,3.20
